Time;durP1;ratioP1;P1;durP2;ratioP2;P2;SDS_P1;SDS_P2;PMS_P1;PMS_P2;Temp;Humidity;BMP_temperature;BMP_pressure;BME280_temperature;BME280_humidity;BME280_pressure;Samples;Min_cycle;Max_cycle;Signal;HPM_P1;HPM_P2
2021/05/18 14:45:26;;;;;;;5.60;5.00;;;15.60;74.30;;;;;;5061924;28;20130;-81
2021/05/18 14:56:00;;;;;;;6.85;5.70;;;14.80;77.40;;;;;;5051584;28;20029;-81
2021/05/18 14:58:26;;;;;;;7.35;5.88;;;14.60;78.50;;;;;;5038269;28;20087;-81
2021/05/18 15:00:52;;;;;;;8.35;5.97;;;14.60;78.70;;;;;;5051475;28;20036;-83
2021/05/18 15:03:18;;;;;;;8.15;5.65;;;14.50;79.50;;;;;;5038869;28;20052;-83
2021/05/18 15:05:44;;;;;;;6.43;5.72;;;14.50;80.20;;;;;;5023045;28;20072;-82
2021/05/18 15:08:10;;;;;;;8.20;6.40;;;14.40;80.90;;;;;;5001065;28;20052;-83
2021/05/18 15:10:36;;;;;;;10.32;5.95;;;14.30;81.20;;;;;;5036579;28;20494;-81
2021/05/18 15:13:03;;;;;;;8.77;5.40;;;14.20;81.50;;;;;;5058867;28;20212;-82
2021/05/18 15:15:29;;;;;;;8.65;6.10;;;14.00;81.90;;;;;;5048935;28;20033;-82
2021/05/18 15:18:00;;;;;;;10.90;6.43;;;13.90;82.70;;;;;;5042366;28;20116;-82
2021/05/18 15:20:26;;;;;;;7.95;6.38;;;13.80;83.20;;;;;;5039600;28;20059;-81
2021/05/18 15:22:52;;;;;;;10.18;7.05;;;13.70;84.20;;;;;;5033292;28;20513;-82
2021/05/18 15:25:21;;;;;;;6.72;6.03;;;13.70;84.80;;;;;;5025609;28;20032;-83
2021/05/18 15:27:47;;;;;;;7.25;6.55;;;13.60;85.00;;;;;;5022907;28;20428;-83
2021/05/18 15:30:13;;;;;;;7.80;6.93;;;13.50;85.70;;;;;;5032982;28;20096;-83
2021/05/18 15:32:40;;;;;;;10.05;7.55;;;13.40;86.30;;;;;;5037001;28;20068;-85
2021/05/18 15:35:07;;;;;;;8.88;6.65;;;13.30;86.60;;;;;;5052288;28;20442;-82
2021/05/18 15:37:34;;;;;;;8.93;7.05;;;13.30;87.00;;;;;;5047440;28;20052;-82
2021/05/18 15:40:01;;;;;;;10.05;7.40;;;13.30;87.30;;;;;;5034168;28;20064;-83
2021/05/18 15:42:27;;;;;;;9.57;8.10;;;13.20;87.90;;;;;;5050314;28;20395;-83
2021/05/18 15:44:53;;;;;;;12.35;8.80;;;13.20;88.20;;;;;;5019146;28;20042;-81
2021/05/18 15:47:19;;;;;;;9.10;8.02;;;13.20;88.20;;;;;;5029714;28;20036;-81
2021/05/18 15:49:45;;;;;;;11.93;8.20;;;13.20;87.60;;;;;;5022526;28;20034;-83
2021/05/18 15:52:11;;;;;;;10.55;8.60;;;13.10;87.40;;;;;;5032964;28;20530;-81
2021/05/18 15:54:37;;;;;;;9.73;8.80;;;13.10;88.20;;;;;;5037229;28;20047;-81
2021/05/18 15:57:04;;;;;;;12.82;7.82;;;13.00;89.20;;;;;;5037529;28;20040;-81
2021/05/18 15:59:30;;;;;;;11.57;8.90;;;13.00;90.00;;;;;;5027402;28;20099;-81
2021/05/18 16:01:56;;;;;;;10.48;8.65;;;12.90;90.20;;;;;;5019875;28;20041;-81
2021/05/18 16:04:23;;;;;;;8.50;6.88;;;12.90;90.30;;;;;;5028496;28;20416;-82
2021/05/18 16:06:50;;;;;;;12.82;8.30;;;12.90;90.10;;;;;;5022696;28;20056;-81
2021/05/18 16:09:16;;;;;;;10.73;7.40;;;12.90;90.20;;;;;;5038113;28;20456;-81
2021/05/18 16:11:42;;;;;;;12.45;8.75;;;12.90;90.00;;;;;;4993283;28;20514;-82
2021/05/18 16:14:09;;;;;;;9.30;7.00;;;12.80;90.20;;;;;;5019808;28;20025;-81
2021/05/18 16:16:36;;;;;;;8.85;6.93;;;12.70;90.50;;;;;;5039238;28;20053;-81
2021/05/18 16:19:04;;;;;;;9.07;6.70;;;12.70;90.60;;;;;;5025168;28;20037;-81
2021/05/18 16:21:32;;;;;;;11.38;7.68;;;12.60;90.70;;;;;;5038331;28;20037;-82
2021/05/18 16:23:58;;;;;;;11.60;7.53;;;12.60;90.80;;;;;;5012086;28;20283;-82
2021/05/18 16:26:32;;;;;;;11.60;7.93;;;12.60;90.90;;;;;;5007937;28;20079;-81
2021/05/18 16:28:59;;;;;;;;;;;12.60;91.10;;;;;;5019173;28;20045;-81
2021/05/18 16:31:26;;;;;;;10.02;5.68;;;12.50;90.50;;;;;;5027936;28;19925;-82
2021/05/18 16:33:54;;;;;;;7.53;5.03;;;12.40;91.00;;;;;;5027849;28;20033;-82
2021/05/18 16:36:20;;;;;;;9.90;5.15;;;12.40;90.80;;;;;;5041764;28;20113;-81
2021/05/18 16:38:46;;;;;;;8.80;5.70;;;12.30;90.90;;;;;;5029320;28;20043;-81
2021/05/18 16:41:13;;;;;;;8.13;5.10;;;12.20;91.00;;;;;;5026142;28;20064;-81
2021/05/18 16:43:39;;;;;;;7.05;5.10;;;12.10;91.30;;;;;;5020430;28;20455;-81
2021/05/18 16:46:08;;;;;;;7.00;5.95;;;12.10;91.50;;;;;;5021965;28;20037;-81
2021/05/18 16:48:34;;;;;;;8.73;5.80;;;12.10;91.70;;;;;;5027919;28;20087;-81
2021/05/18 16:51:03;;;;;;;7.43;6.13;;;12.00;91.80;;;;;;5041525;28;20036;-82
2021/05/18 16:53:31;;;;;;;8.70;6.15;;;11.90;91.90;;;;;;5046905;28;20041;-81
2021/05/18 16:56:02;;;;;;;8.18;6.53;;;11.80;92.00;;;;;;5060103;28;20029;-81
2021/05/18 16:58:27;;;;;;;8.60;6.97;;;11.80;91.90;;;;;;5053166;28;20032;-81
2021/05/18 17:00:53;;;;;;;9.00;7.25;;;11.90;92.10;;;;;;5040936;28;20503;-81
2021/05/18 17:03:20;;;;;;;10.13;7.18;;;11.90;92.00;;;;;;5054729;28;20472;-81
2021/05/18 17:05:46;;;;;;;8.50;7.07;;;11.90;92.10;;;;;;5051619;28;20030;-81
2021/05/18 17:08:12;;;;;;;8.13;6.95;;;11.90;92.30;;;;;;5049770;28;20052;-80
2021/05/18 17:10:42;;;;;;;10.65;8.15;;;11.80;92.40;;;;;;5046194;28;20033;-80
2021/05/18 17:13:09;;;;;;;9.07;7.75;;;11.80;92.50;;;;;;5044186;28;20029;-81
2021/05/18 17:15:35;;;;;;;12.63;8.32;;;11.80;92.60;;;;;;5034888;28;20032;-82
2021/05/18 17:18:01;;;;;;;10.95;7.90;;;11.80;92.70;;;;;;5015039;28;20032;-81
2021/05/18 17:20:30;;;;;;;17.00;10.68;;;11.80;92.90;;;;;;5036484;28;20040;-85
2021/05/18 17:22:56;;;;;;;41.70;13.80;;;11.70;93.10;;;;;;5037659;28;20496;-88
2021/05/18 17:25:22;;;;;;;19.98;11.13;;;11.70;93.40;;;;;;5021032;28;20042;-86
2021/05/18 17:27:57;;;;;;;23.30;12.32;;;11.60;93.70;;;;;;5018823;28;20079;-88
2021/05/18 17:30:27;;;;;;;15.65;10.80;;;11.60;93.80;;;;;;5017456;28;20046;-88
2021/05/18 17:33:42;;;;;;;25.58;12.07;;;11.60;93.90;;;;;;5036854;28;20059;-89
2021/05/18 18:11:02;;;;;;;29.95;18.80;;;11.40;95.10;;;;;;5079691;28;20059;-88
2021/05/18 18:17:48;;;;;;;24.15;17.08;;;11.40;95.30;;;;;;5055712;28;20216;-87
2021/05/18 18:21:56;;;;;;;;;;;;;;;;;;;;;
2021/05/18 18:25:31;;;;;;;31.38;18.55;;;11.30;95.40;;;;;;5021241;28;20415;-88
2021/05/18 18:28:35;;;;;;;20.52;15.32;;;11.30;95.50;;;;;;4875334;29;20115;-88
2021/05/18 19:00:09;;;;;;;43.13;18.27;;;11.30;95.60;;;;;;5042299;28;20048;-84
2021/05/18 19:02:44;;;;;;;49.33;19.35;;;11.30;95.60;;;;;;5050320;28;20044;-85
2021/05/18 19:05:25;;;;;;;30.38;15.02;;;11.10;95.70;;;;;;5026539;28;20080;-83
2021/05/18 19:13:30;;;;;;;36.47;18.58;;;11.10;96.10;;;;;;5029082;28;20041;-84
2021/05/18 19:15:56;;;;;;;30.52;18.90;;;11.00;96.00;;;;;;5040495;28;20124;-85
2021/05/18 19:18:22;;;;;;;30.45;19.67;;;11.00;96.40;;;;;;5025407;28;20079;-85
2021/05/18 19:20:48;;;;;;;29.02;19.85;;;11.00;96.30;;;;;;5036124;28;20463;-86
2021/05/18 19:23:19;;;;;;;26.95;16.52;;;11.00;96.40;;;;;;5038060;28;20090;-86
2021/05/18 19:25:45;;;;;;;29.83;18.50;;;10.90;96.30;;;;;;5048735;28;20482;-86
2021/05/18 19:28:19;;;;;;;32.47;19.55;;;10.90;96.30;;;;;;5054261;28;20040;-86
2021/05/18 19:31:05;;;;;;;24.75;17.83;;;10.90;96.30;;;;;;5036244;28;20040;-87
2021/05/18 19:34:19;;;;;;;;;;;;;;;;;;;;;
2021/05/18 19:37:09;;;;;;;28.38;18.63;;;10.90;96.40;;;;;;5033315;28;20051;-87
